sensor_id;sensor_type;location;lat;lon;timestamp;P1;durP1;ratioP1;P2;durP2;ratioP2
4839;SDS011;2434;48.486;7.964;2024-01-15T00:01:03;45.50;;;19.40;;
4839;SDS011;2434;48.486;7.964;2024-01-15T00:03:31;48.60;;;19.50;;
4839;SDS011;2434;48.486;7.964;2024-01-15T00:05:59;49.03;;;19.83;;
4839;SDS011;2434;48.486;7.964;2024-01-15T00:08:29;53.50;;;19.30;;
4839;SDS011;2434;48.486;7.964;2024-01-15T00:10:57;49.73;;;19.47;;
4839;SDS011;2434;48.486;7.964;2024-01-15T00:13:25;41.20;;;18.07;;
4839;SDS011;2434;48.486;7.964;2024-01-15T00:15:54;44.80;;;17.47;;
4839;SDS011;2434;48.486;7.964;2024-01-15T00:18:22;53.27;;;22.07;;
4839;SDS011;2434;48.486;7.964;2024-01-15T00:20:50;45.40;;;19.43;;
4839;SDS011;2434;48.486;7.964;2024-01-15T00:23:19;48.93;;;20.27;;
4839;SDS011;2434;48.486;7.964;2024-01-15T00:25:48;46.50;;;19.37;;
4839;SDS011;2434;48.486;7.964;2024-01-15T00:28:18;44.93;;;20.07;;
4839;SDS011;2434;48.486;7.964;2024-01-15T00:30:46;45.80;;;19.90;;
4839;SDS011;2434;48.486;7.964;2024-01-15T00:33:14;46.27;;;20.63;;
4839;SDS011;2434;48.486;7.964;2024-01-15T00:35:43;51.00;;;20.43;;
4839;SDS011;2434;48.486;7.964;2024-01-15T00:38:11;44.47;;;19.20;;
4839;SDS011;2434;48.486;7.964;2024-01-15T00:40:39;47.80;;;21.57;;
4839;SDS011;2434;48.486;7.964;2024-01-15T00:43:09;46.43;;;18.67;;
4839;SDS011;2434;48.486;7.964;2024-01-15T00:45:37;52.37;;;19.70;;
4839;SDS011;2434;48.486;7.964;2024-01-15T00:48:06;54.40;;;19.73;;
4839;SDS011;2434;48.486;7.964;2024-01-15T00:50:34;52.83;;;21.20;;
4839;SDS011;2434;48.486;7.964;2024-01-15T00:53:03;52.83;;;21.27;;
4839;SDS011;2434;48.486;7.964;2024-01-15T00:55:31;42.20;;;19.60;;
4839;SDS011;2434;48.486;7.964;2024-01-15T00:57:59;39.97;;;19.23;;
4839;SDS011;2434;48.486;7.964;2024-01-15T01:00:29;43.93;;;20.30;;
4839;SDS011;2434;48.486;7.964;2024-01-15T01:02:57;51.37;;;21.97;;
4839;SDS011;2434;48.486;7.964;2024-01-15T01:05:25;45.67;;;20.67;;
4839;SDS011;2434;48.486;7.964;2024-01-15T01:07:53;47.70;;;21.03;;
4839;SDS011;2434;48.486;7.964;2024-01-15T01:10:21;43.70;;;19.70;;
4839;SDS011;2434;48.486;7.964;2024-01-15T01:12:49;40.47;;;19.77;;
4839;SDS011;2434;48.486;7.964;2024-01-15T01:15:18;47.73;;;21.30;;
4839;SDS011;2434;48.486;7.964;2024-01-15T01:17:47;49.00;;;21.47;;
4839;SDS011;2434;48.486;7.964;2024-01-15T01:20:16;45.57;;;19.70;;
4839;SDS011;2434;48.486;7.964;2024-01-15T01:22:45;49.87;;;19.07;;
4839;SDS011;2434;48.486;7.964;2024-01-15T01:25:13;49.67;;;18.87;;
4839;SDS011;2434;48.486;7.964;2024-01-15T01:27:41;47.13;;;19.60;;
4839;SDS011;2434;48.486;7.964;2024-01-15T01:30:10;44.93;;;19.03;;
4839;SDS011;2434;48.486;7.964;2024-01-15T01:32:38;48.93;;;22.00;;
4839;SDS011;2434;48.486;7.964;2024-01-15T01:35:08;44.20;;;19.90;;
4839;SDS011;2434;48.486;7.964;2024-01-15T01:37:37;46.60;;;20.53;;
4839;SDS011;2434;48.486;7.964;2024-01-15T01:40:05;49.83;;;21.53;;
4839;SDS011;2434;48.486;7.964;2024-01-15T01:42:34;42.60;;;19.67;;
4839;SDS011;2434;48.486;7.964;2024-01-15T01:45:02;49.60;;;21.30;;
4839;SDS011;2434;48.486;7.964;2024-01-15T01:47:31;50.57;;;22.03;;
4839;SDS011;2434;48.486;7.964;2024-01-15T01:50:00;49.00;;;21.17;;
4839;SDS011;2434;48.486;7.964;2024-01-15T01:52:31;39.87;;;19.13;;
4839;SDS011;2434;48.486;7.964;2024-01-15T01:55:01;51.53;;;20.50;;
4839;SDS011;2434;48.486;7.964;2024-01-15T01:57:30;44.03;;;20.00;;
4839;SDS011;2434;48.486;7.964;2024-01-15T02:00:01;57.90;;;21.00;;
4839;SDS011;2434;48.486;7.964;2024-01-15T02:02:36;51.60;;;22.77;;
4839;SDS011;2434;48.486;7.964;2024-01-15T02:05:05;47.53;;;23.43;;
4839;SDS011;2434;48.486;7.964;2024-01-15T02:07:36;51.23;;;22.50;;
4839;SDS011;2434;48.486;7.964;2024-01-15T02:10:05;46.87;;;21.00;;
4839;SDS011;2434;48.486;7.964;2024-01-15T02:12:33;44.13;;;20.50;;
4839;SDS011;2434;48.486;7.964;2024-01-15T02:15:01;62.37;;;23.03;;
4839;SDS011;2434;48.486;7.964;2024-01-15T02:17:30;49.40;;;21.20;;
4839;SDS011;2434;48.486;7.964;2024-01-15T02:19:58;49.50;;;21.80;;
4839;SDS011;2434;48.486;7.964;2024-01-15T02:22:26;46.60;;;21.23;;
4839;SDS011;2434;48.486;7.964;2024-01-15T02:24:56;48.80;;;21.97;;
4839;SDS011;2434;48.486;7.964;2024-01-15T02:27:24;44.17;;;21.20;;
4839;SDS011;2434;48.486;7.964;2024-01-15T02:29:53;48.97;;;20.23;;
4839;SDS011;2434;48.486;7.964;2024-01-15T02:32:21;47.70;;;20.23;;
4839;SDS011;2434;48.486;7.964;2024-01-15T02:34:50;38.47;;;18.57;;
4839;SDS011;2434;48.486;7.964;2024-01-15T02:37:18;48.57;;;23.27;;
4839;SDS011;2434;48.486;7.964;2024-01-15T02:39:47;47.37;;;19.73;;
4839;SDS011;2434;48.486;7.964;2024-01-15T02:42:16;43.77;;;22.60;;
4839;SDS011;2434;48.486;7.964;2024-01-15T02:44:45;50.07;;;21.20;;
4839;SDS011;2434;48.486;7.964;2024-01-15T02:47:15;40.63;;;20.40;;
4839;SDS011;2434;48.486;7.964;2024-01-15T02:49:43;42.70;;;19.60;;
4839;SDS011;2434;48.486;7.964;2024-01-15T02:52:11;46.13;;;19.87;;
4839;SDS011;2434;48.486;7.964;2024-01-15T02:54:39;52.20;;;19.43;;
4839;SDS011;2434;48.486;7.964;2024-01-15T02:57:07;43.17;;;22.60;;
4839;SDS011;2434;48.486;7.964;2024-01-15T02:59:37;47.63;;;21.47;;
4839;SDS011;2434;48.486;7.964;2024-01-15T03:02:05;41.03;;;20.03;;
4839;SDS011;2434;48.486;7.964;2024-01-15T03:04:33;54.83;;;22.70;;
4839;SDS011;2434;48.486;7.964;2024-01-15T03:07:01;41.37;;;20.50;;
4839;SDS011;2434;48.486;7.964;2024-01-15T03:09:30;47.30;;;21.67;;
4839;SDS011;2434;48.486;7.964;2024-01-15T03:11:58;47.90;;;20.80;;
4839;SDS011;2434;48.486;7.964;2024-01-15T03:14:26;43.07;;;21.33;;
4839;SDS011;2434;48.486;7.964;2024-01-15T03:16:56;45.17;;;21.63;;
4839;SDS011;2434;48.486;7.964;2024-01-15T03:19:24;47.67;;;20.97;;
4839;SDS011;2434;48.486;7.964;2024-01-15T03:21:52;49.40;;;22.50;;
4839;SDS011;2434;48.486;7.964;2024-01-15T03:24:21;50.13;;;22.50;;
4839;SDS011;2434;48.486;7.964;2024-01-15T03:26:49;51.90;;;22.73;;
4839;SDS011;2434;48.486;7.964;2024-01-15T03:29:17;47.70;;;22.63;;
4839;SDS011;2434;48.486;7.964;2024-01-15T03:31:46;54.60;;;24.83;;
4839;SDS011;2434;48.486;7.964;2024-01-15T03:34:15;45.70;;;23.00;;
4839;SDS011;2434;48.486;7.964;2024-01-15T03:36:44;56.53;;;23.10;;
4839;SDS011;2434;48.486;7.964;2024-01-15T03:39:12;49.33;;;23.63;;
4839;SDS011;2434;48.486;7.964;2024-01-15T03:41:41;54.00;;;22.23;;
4839;SDS011;2434;48.486;7.964;2024-01-15T03:44:09;55.40;;;24.10;;
4839;SDS011;2434;48.486;7.964;2024-01-15T03:46:37;44.47;;;22.60;;
4839;SDS011;2434;48.486;7.964;2024-01-15T03:49:05;55.40;;;24.07;;
4839;SDS011;2434;48.486;7.964;2024-01-15T03:51:34;48.63;;;22.57;;
4839;SDS011;2434;48.486;7.964;2024-01-15T03:54:03;46.57;;;21.80;;
4839;SDS011;2434;48.486;7.964;2024-01-15T03:56:31;68.03;;;26.67;;
4839;SDS011;2434;48.486;7.964;2024-01-15T03:58:59;52.43;;;23.87;;
4839;SDS011;2434;48.486;7.964;2024-01-15T04:01:27;58.10;;;25.17;;
4839;SDS011;2434;48.486;7.964;2024-01-15T04:03:56;52.53;;;22.50;;
4839;SDS011;2434;48.486;7.964;2024-01-15T04:06:24;50.13;;;23.77;;
4839;SDS011;2434;48.486;7.964;2024-01-15T04:08:54;49.93;;;24.80;;
4839;SDS011;2434;48.486;7.964;2024-01-15T04:11:22;52.40;;;24.33;;
4839;SDS011;2434;48.486;7.964;2024-01-15T04:13:50;43.63;;;23.20;;
4839;SDS011;2434;48.486;7.964;2024-01-15T04:16:18;50.13;;;23.23;;
4839;SDS011;2434;48.486;7.964;2024-01-15T04:18:47;49.10;;;23.30;;
4839;SDS011;2434;48.486;7.964;2024-01-15T04:21:16;54.33;;;25.30;;
4839;SDS011;2434;48.486;7.964;2024-01-15T04:23:44;51.00;;;23.00;;
4839;SDS011;2434;48.486;7.964;2024-01-15T04:26:14;57.40;;;25.33;;
4839;SDS011;2434;48.486;7.964;2024-01-15T04:28:42;44.27;;;21.07;;
4839;SDS011;2434;48.486;7.964;2024-01-15T04:31:19;44.93;;;21.70;;
4839;SDS011;2434;48.486;7.964;2024-01-15T04:33:49;48.40;;;23.00;;
4839;SDS011;2434;48.486;7.964;2024-01-15T04:36:17;51.57;;;22.20;;
4839;SDS011;2434;48.486;7.964;2024-01-15T04:38:45;50.80;;;23.13;;
4839;SDS011;2434;48.486;7.964;2024-01-15T04:41:16;53.53;;;23.90;;
4839;SDS011;2434;48.486;7.964;2024-01-15T04:43:44;44.60;;;22.37;;
4839;SDS011;2434;48.486;7.964;2024-01-15T04:46:12;48.07;;;22.63;;
4839;SDS011;2434;48.486;7.964;2024-01-15T04:48:40;50.87;;;22.53;;
4839;SDS011;2434;48.486;7.964;2024-01-15T04:51:09;44.37;;;21.50;;
4839;SDS011;2434;48.486;7.964;2024-01-15T04:53:37;51.47;;;23.43;;
4839;SDS011;2434;48.486;7.964;2024-01-15T04:56:05;51.80;;;21.60;;
4839;SDS011;2434;48.486;7.964;2024-01-15T04:58:35;55.33;;;23.80;;
4839;SDS011;2434;48.486;7.964;2024-01-15T05:01:03;47.13;;;22.93;;
4839;SDS011;2434;48.486;7.964;2024-01-15T05:03:31;58.90;;;25.63;;
4839;SDS011;2434;48.486;7.964;2024-01-15T05:06:00;47.67;;;22.43;;
4839;SDS011;2434;48.486;7.964;2024-01-15T05:08:28;51.87;;;22.83;;
4839;SDS011;2434;48.486;7.964;2024-01-15T05:10:57;44.47;;;20.57;;
4839;SDS011;2434;48.486;7.964;2024-01-15T05:13:25;47.73;;;20.60;;
4839;SDS011;2434;48.486;7.964;2024-01-15T05:15:54;48.03;;;20.37;;
4839;SDS011;2434;48.486;7.964;2024-01-15T05:18:23;39.47;;;19.10;;
4839;SDS011;2434;48.486;7.964;2024-01-15T05:20:51;40.90;;;17.57;;
4839;SDS011;2434;48.486;7.964;2024-01-15T05:23:19;34.43;;;17.80;;
4839;SDS011;2434;48.486;7.964;2024-01-15T05:25:47;36.57;;;17.17;;
4839;SDS011;2434;48.486;7.964;2024-01-15T05:28:16;34.30;;;17.17;;
4839;SDS011;2434;48.486;7.964;2024-01-15T05:30:44;34.97;;;17.13;;
4839;SDS011;2434;48.486;7.964;2024-01-15T05:33:14;41.23;;;17.97;;
4839;SDS011;2434;48.486;7.964;2024-01-15T05:35:43;39.03;;;17.53;;
4839;SDS011;2434;48.486;7.964;2024-01-15T05:38:11;35.43;;;15.60;;
4839;SDS011;2434;48.486;7.964;2024-01-15T05:40:39;37.20;;;16.23;;
4839;SDS011;2434;48.486;7.964;2024-01-15T05:43:07;32.00;;;16.53;;
4839;SDS011;2434;48.486;7.964;2024-01-15T05:45:37;32.40;;;15.27;;
4839;SDS011;2434;48.486;7.964;2024-01-15T05:48:06;29.90;;;14.83;;
4839;SDS011;2434;48.486;7.964;2024-01-15T05:50:36;35.40;;;17.17;;
4839;SDS011;2434;48.486;7.964;2024-01-15T05:53:04;34.77;;;15.27;;
4839;SDS011;2434;48.486;7.964;2024-01-15T05:55:32;30.00;;;14.87;;
4839;SDS011;2434;48.486;7.964;2024-01-15T05:58:00;33.77;;;14.37;;
4839;SDS011;2434;48.486;7.964;2024-01-15T06:00:28;34.47;;;14.77;;
4839;SDS011;2434;48.486;7.964;2024-01-15T06:02:56;29.60;;;14.13;;
4839;SDS011;2434;48.486;7.964;2024-01-15T06:05:24;27.33;;;13.70;;
4839;SDS011;2434;48.486;7.964;2024-01-15T06:07:54;30.97;;;14.40;;
4839;SDS011;2434;48.486;7.964;2024-01-15T06:10:22;30.67;;;14.90;;
4839;SDS011;2434;48.486;7.964;2024-01-15T06:12:50;32.53;;;13.27;;
4839;SDS011;2434;48.486;7.964;2024-01-15T06:15:18;22.23;;;12.43;;
4839;SDS011;2434;48.486;7.964;2024-01-15T06:17:46;26.77;;;13.17;;
4839;SDS011;2434;48.486;7.964;2024-01-15T06:20:14;33.40;;;16.37;;
4839;SDS011;2434;48.486;7.964;2024-01-15T06:22:43;25.53;;;13.60;;
4839;SDS011;2434;48.486;7.964;2024-01-15T06:25:12;28.30;;;12.80;;
4839;SDS011;2434;48.486;7.964;2024-01-15T06:27:40;26.00;;;11.90;;
4839;SDS011;2434;48.486;7.964;2024-01-15T06:30:09;26.43;;;12.97;;
4839;SDS011;2434;48.486;7.964;2024-01-15T06:32:38;25.20;;;12.63;;
4839;SDS011;2434;48.486;7.964;2024-01-15T06:35:07;30.47;;;13.53;;
4839;SDS011;2434;48.486;7.964;2024-01-15T06:37:36;25.60;;;12.27;;
4839;SDS011;2434;48.486;7.964;2024-01-15T06:40:05;24.63;;;11.63;;
4839;SDS011;2434;48.486;7.964;2024-01-15T06:42:36;22.10;;;11.83;;
4839;SDS011;2434;48.486;7.964;2024-01-15T06:45:04;26.80;;;12.77;;
4839;SDS011;2434;48.486;7.964;2024-01-15T06:47:33;22.50;;;11.60;;
4839;SDS011;2434;48.486;7.964;2024-01-15T06:50:01;22.30;;;10.67;;
4839;SDS011;2434;48.486;7.964;2024-01-15T06:52:31;22.10;;;11.40;;
4839;SDS011;2434;48.486;7.964;2024-01-15T06:54:59;22.13;;;9.97;;
4839;SDS011;2434;48.486;7.964;2024-01-15T06:57:27;21.40;;;10.57;;
4839;SDS011;2434;48.486;7.964;2024-01-15T06:59:57;21.87;;;11.23;;
4839;SDS011;2434;48.486;7.964;2024-01-15T07:02:25;16.90;;;8.47;;
4839;SDS011;2434;48.486;7.964;2024-01-15T07:04:53;16.23;;;8.87;;
4839;SDS011;2434;48.486;7.964;2024-01-15T07:07:21;19.60;;;9.80;;
4839;SDS011;2434;48.486;7.964;2024-01-15T07:09:49;16.03;;;8.33;;
4839;SDS011;2434;48.486;7.964;2024-01-15T07:12:18;22.23;;;8.80;;
4839;SDS011;2434;48.486;7.964;2024-01-15T07:14:46;18.40;;;9.30;;
4839;SDS011;2434;48.486;7.964;2024-01-15T07:17:16;17.93;;;8.80;;
4839;SDS011;2434;48.486;7.964;2024-01-15T07:19:44;23.83;;;13.77;;
4839;SDS011;2434;48.486;7.964;2024-01-15T07:22:13;16.90;;;8.80;;
4839;SDS011;2434;48.486;7.964;2024-01-15T07:24:41;20.90;;;10.47;;
4839;SDS011;2434;48.486;7.964;2024-01-15T07:27:09;23.43;;;10.30;;
4839;SDS011;2434;48.486;7.964;2024-01-15T07:29:38;20.90;;;9.80;;
4839;SDS011;2434;48.486;7.964;2024-01-15T07:32:06;22.40;;;10.30;;
4839;SDS011;2434;48.486;7.964;2024-01-15T07:34:36;18.30;;;9.10;;
4839;SDS011;2434;48.486;7.964;2024-01-15T07:37:05;20.53;;;9.57;;
4839;SDS011;2434;48.486;7.964;2024-01-15T07:39:33;20.27;;;10.20;;
4839;SDS011;2434;48.486;7.964;2024-01-15T07:42:02;17.40;;;9.87;;
4839;SDS011;2434;48.486;7.964;2024-01-15T07:44:30;21.63;;;11.57;;
4839;SDS011;2434;48.486;7.964;2024-01-15T07:46:58;20.90;;;10.63;;
4839;SDS011;2434;48.486;7.964;2024-01-15T07:49:28;20.07;;;10.33;;
4839;SDS011;2434;48.486;7.964;2024-01-15T07:51:58;25.27;;;11.40;;
4839;SDS011;2434;48.486;7.964;2024-01-15T07:54:26;20.33;;;11.63;;
4839;SDS011;2434;48.486;7.964;2024-01-15T07:56:54;23.90;;;12.10;;
4839;SDS011;2434;48.486;7.964;2024-01-15T07:59:23;27.77;;;13.00;;
4839;SDS011;2434;48.486;7.964;2024-01-15T08:01:52;28.07;;;12.30;;
4839;SDS011;2434;48.486;7.964;2024-01-15T08:04:20;26.60;;;12.83;;
4839;SDS011;2434;48.486;7.964;2024-01-15T08:06:49;24.63;;;12.30;;
4839;SDS011;2434;48.486;7.964;2024-01-15T08:09:19;28.13;;;13.40;;
4839;SDS011;2434;48.486;7.964;2024-01-15T08:11:48;28.67;;;13.47;;
4839;SDS011;2434;48.486;7.964;2024-01-15T08:14:17;26.07;;;13.23;;
4839;SDS011;2434;48.486;7.964;2024-01-15T08:16:45;27.43;;;12.57;;
4839;SDS011;2434;48.486;7.964;2024-01-15T08:19:13;29.60;;;13.27;;
4839;SDS011;2434;48.486;7.964;2024-01-15T08:21:42;26.83;;;12.60;;
4839;SDS011;2434;48.486;7.964;2024-01-15T08:24:11;26.80;;;13.90;;
4839;SDS011;2434;48.486;7.964;2024-01-15T08:26:40;25.10;;;12.93;;
4839;SDS011;2434;48.486;7.964;2024-01-15T08:29:09;34.27;;;14.87;;
4839;SDS011;2434;48.486;7.964;2024-01-15T08:31:37;28.93;;;14.77;;
4839;SDS011;2434;48.486;7.964;2024-01-15T08:34:05;35.43;;;16.70;;
4839;SDS011;2434;48.486;7.964;2024-01-15T08:36:34;37.53;;;16.90;;
4839;SDS011;2434;48.486;7.964;2024-01-15T08:39:03;39.93;;;19.23;;
4839;SDS011;2434;48.486;7.964;2024-01-15T08:41:31;37.03;;;17.93;;
4839;SDS011;2434;48.486;7.964;2024-01-15T08:44:01;40.83;;;18.20;;
4839;SDS011;2434;48.486;7.964;2024-01-15T08:46:29;39.10;;;18.80;;
4839;SDS011;2434;48.486;7.964;2024-01-15T08:48:57;43.60;;;20.00;;
4839;SDS011;2434;48.486;7.964;2024-01-15T08:51:26;48.70;;;20.90;;
4839;SDS011;2434;48.486;7.964;2024-01-15T08:53:54;42.83;;;20.43;;
4839;SDS011;2434;48.486;7.964;2024-01-15T08:56:24;51.13;;;21.67;;
4839;SDS011;2434;48.486;7.964;2024-01-15T08:58:53;48.27;;;21.43;;
4839;SDS011;2434;48.486;7.964;2024-01-15T09:01:29;47.70;;;20.10;;
4839;SDS011;2434;48.486;7.964;2024-01-15T09:03:57;47.23;;;21.27;;
4839;SDS011;2434;48.486;7.964;2024-01-15T09:06:25;42.00;;;20.90;;
4839;SDS011;2434;48.486;7.964;2024-01-15T09:08:53;48.67;;;21.00;;
4839;SDS011;2434;48.486;7.964;2024-01-15T09:11:22;51.90;;;20.87;;
4839;SDS011;2434;48.486;7.964;2024-01-15T09:13:51;48.67;;;21.03;;
4839;SDS011;2434;48.486;7.964;2024-01-15T09:16:19;49.83;;;23.70;;
4839;SDS011;2434;48.486;7.964;2024-01-15T09:18:48;49.03;;;23.10;;
4839;SDS011;2434;48.486;7.964;2024-01-15T09:21:17;53.53;;;23.33;;
4839;SDS011;2434;48.486;7.964;2024-01-15T09:23:45;55.07;;;24.33;;
4839;SDS011;2434;48.486;7.964;2024-01-15T09:26:13;44.60;;;21.97;;
4839;SDS011;2434;48.486;7.964;2024-01-15T09:28:41;47.30;;;21.23;;
4839;SDS011;2434;48.486;7.964;2024-01-15T09:31:10;45.10;;;21.00;;
4839;SDS011;2434;48.486;7.964;2024-01-15T09:33:38;43.63;;;20.93;;
4839;SDS011;2434;48.486;7.964;2024-01-15T09:36:08;47.20;;;23.07;;
4839;SDS011;2434;48.486;7.964;2024-01-15T09:38:36;46.20;;;21.60;;
4839;SDS011;2434;48.486;7.964;2024-01-15T09:41:04;52.07;;;22.07;;
4839;SDS011;2434;48.486;7.964;2024-01-15T09:43:32;44.33;;;20.90;;
4839;SDS011;2434;48.486;7.964;2024-01-15T09:46:01;41.50;;;19.73;;
4839;SDS011;2434;48.486;7.964;2024-01-15T09:48:30;51.73;;;20.93;;
4839;SDS011;2434;48.486;7.964;2024-01-15T09:51:01;43.17;;;20.73;;
4839;SDS011;2434;48.486;7.964;2024-01-15T09:53:31;47.47;;;20.80;;
4839;SDS011;2434;48.486;7.964;2024-01-15T09:55:59;45.40;;;22.67;;
4839;SDS011;2434;48.486;7.964;2024-01-15T09:58:27;47.40;;;20.87;;
4839;SDS011;2434;48.486;7.964;2024-01-15T10:00:56;45.50;;;21.60;;
4839;SDS011;2434;48.486;7.964;2024-01-15T10:03:25;45.27;;;20.47;;
4839;SDS011;2434;48.486;7.964;2024-01-15T10:05:53;44.07;;;20.03;;
4839;SDS011;2434;48.486;7.964;2024-01-15T10:08:22;42.83;;;20.40;;
4839;SDS011;2434;48.486;7.964;2024-01-15T10:10:52;36.73;;;18.27;;
4839;SDS011;2434;48.486;7.964;2024-01-15T10:13:21;41.33;;;19.23;;
4839;SDS011;2434;48.486;7.964;2024-01-15T10:15:50;38.47;;;19.10;;
4839;SDS011;2434;48.486;7.964;2024-01-15T10:18:18;39.67;;;17.43;;
4839;SDS011;2434;48.486;7.964;2024-01-15T10:20:46;35.80;;;16.57;;
4839;SDS011;2434;48.486;7.964;2024-01-15T10:23:15;36.70;;;17.27;;
4839;SDS011;2434;48.486;7.964;2024-01-15T10:25:43;37.93;;;18.20;;
4839;SDS011;2434;48.486;7.964;2024-01-15T10:28:13;34.10;;;15.80;;
4839;SDS011;2434;48.486;7.964;2024-01-15T10:30:41;39.00;;;18.10;;
4839;SDS011;2434;48.486;7.964;2024-01-15T10:33:09;32.77;;;15.90;;
4839;SDS011;2434;48.486;7.964;2024-01-15T10:35:38;34.80;;;16.43;;
4839;SDS011;2434;48.486;7.964;2024-01-15T10:38:08;35.63;;;16.40;;
4839;SDS011;2434;48.486;7.964;2024-01-15T10:40:36;33.80;;;17.00;;
4839;SDS011;2434;48.486;7.964;2024-01-15T10:43:04;33.27;;;17.73;;
4839;SDS011;2434;48.486;7.964;2024-01-15T10:45:34;33.17;;;15.50;;
4839;SDS011;2434;48.486;7.964;2024-01-15T10:48:02;28.90;;;15.30;;
4839;SDS011;2434;48.486;7.964;2024-01-15T10:50:32;30.33;;;15.70;;
4839;SDS011;2434;48.486;7.964;2024-01-15T10:53:00;36.93;;;15.27;;
4839;SDS011;2434;48.486;7.964;2024-01-15T10:55:30;33.17;;;14.50;;
4839;SDS011;2434;48.486;7.964;2024-01-15T10:58:00;44.27;;;16.30;;
4839;SDS011;2434;48.486;7.964;2024-01-15T11:00:30;26.40;;;14.07;;
4839;SDS011;2434;48.486;7.964;2024-01-15T11:03:00;30.60;;;13.77;;
4839;SDS011;2434;48.486;7.964;2024-01-15T11:05:28;33.70;;;15.67;;
4839;SDS011;2434;48.486;7.964;2024-01-15T11:08:00;28.60;;;13.87;;
4839;SDS011;2434;48.486;7.964;2024-01-15T11:10:38;26.03;;;12.63;;
4839;SDS011;2434;48.486;7.964;2024-01-15T11:13:09;24.93;;;12.83;;
4839;SDS011;2434;48.486;7.964;2024-01-15T11:15:57;24.33;;;12.37;;
4839;SDS011;2434;48.486;7.964;2024-01-15T11:18:29;24.20;;;12.80;;
4839;SDS011;2434;48.486;7.964;2024-01-15T11:21:19;25.50;;;12.37;;
4839;SDS011;2434;48.486;7.964;2024-01-15T11:23:50;21.37;;;10.67;;
4839;SDS011;2434;48.486;7.964;2024-01-15T11:26:27;23.93;;;12.73;;
4839;SDS011;2434;48.486;7.964;2024-01-15T11:28:56;27.83;;;12.60;;
4839;SDS011;2434;48.486;7.964;2024-01-15T11:31:27;29.13;;;12.63;;
4839;SDS011;2434;48.486;7.964;2024-01-15T11:33:57;24.47;;;12.53;;
4839;SDS011;2434;48.486;7.964;2024-01-15T11:39:39;27.43;;;12.97;;
4839;SDS011;2434;48.486;7.964;2024-01-15T11:42:09;25.23;;;12.60;;
4839;SDS011;2434;48.486;7.964;2024-01-15T11:44:39;24.70;;;11.80;;
4839;SDS011;2434;48.486;7.964;2024-01-15T11:47:08;24.67;;;12.80;;
4839;SDS011;2434;48.486;7.964;2024-01-15T11:49:53;22.73;;;11.40;;
4839;SDS011;2434;48.486;7.964;2024-01-15T11:52:31;24.80;;;12.40;;
4839;SDS011;2434;48.486;7.964;2024-01-15T11:55:02;24.10;;;10.97;;
4839;SDS011;2434;48.486;7.964;2024-01-15T11:57:40;25.87;;;13.17;;
4839;SDS011;2434;48.486;7.964;2024-01-15T12:00:12;22.00;;;13.10;;
4839;SDS011;2434;48.486;7.964;2024-01-15T12:02:41;20.30;;;10.10;;
4839;SDS011;2434;48.486;7.964;2024-01-15T12:05:12;26.13;;;13.30;;
4839;SDS011;2434;48.486;7.964;2024-01-15T12:07:41;26.00;;;12.47;;
4839;SDS011;2434;48.486;7.964;2024-01-15T12:10:10;25.03;;;12.03;;
4839;SDS011;2434;48.486;7.964;2024-01-15T12:12:57;22.63;;;11.37;;
4839;SDS011;2434;48.486;7.964;2024-01-15T12:15:27;20.97;;;10.93;;
4839;SDS011;2434;48.486;7.964;2024-01-15T12:17:57;20.00;;;11.30;;
4839;SDS011;2434;48.486;7.964;2024-01-15T12:20:28;21.33;;;11.17;;
4839;SDS011;2434;48.486;7.964;2024-01-15T12:22:58;23.07;;;11.43;;
4839;SDS011;2434;48.486;7.964;2024-01-15T12:25:30;21.73;;;11.33;;
4839;SDS011;2434;48.486;7.964;2024-01-15T12:27:59;18.90;;;11.13;;
4839;SDS011;2434;48.486;7.964;2024-01-15T12:30:28;21.83;;;11.53;;
4839;SDS011;2434;48.486;7.964;2024-01-15T12:32:58;17.93;;;9.50;;
4839;SDS011;2434;48.486;7.964;2024-01-15T12:35:32;19.03;;;9.83;;
4839;SDS011;2434;48.486;7.964;2024-01-15T12:38:01;16.83;;;8.40;;
4839;SDS011;2434;48.486;7.964;2024-01-15T12:40:31;13.93;;;7.83;;
4839;SDS011;2434;48.486;7.964;2024-01-15T12:43:02;17.20;;;8.60;;
4839;SDS011;2434;48.486;7.964;2024-01-15T12:45:30;15.87;;;8.70;;
4839;SDS011;2434;48.486;7.964;2024-01-15T12:47:58;15.20;;;8.53;;
4839;SDS011;2434;48.486;7.964;2024-01-15T12:50:27;16.70;;;9.60;;
4839;SDS011;2434;48.486;7.964;2024-01-15T12:52:57;16.70;;;9.47;;
4839;SDS011;2434;48.486;7.964;2024-01-15T12:55:26;21.27;;;9.40;;
4839;SDS011;2434;48.486;7.964;2024-01-15T12:57:55;16.30;;;7.80;;
4839;SDS011;2434;48.486;7.964;2024-01-15T13:00:23;18.17;;;10.50;;
4839;SDS011;2434;48.486;7.964;2024-01-15T13:02:53;17.70;;;9.40;;
4839;SDS011;2434;48.486;7.964;2024-01-15T13:05:21;16.97;;;10.33;;
4839;SDS011;2434;48.486;7.964;2024-01-15T13:07:51;20.17;;;11.00;;
4839;SDS011;2434;48.486;7.964;2024-01-15T13:10:20;24.33;;;10.13;;
4839;SDS011;2434;48.486;7.964;2024-01-15T13:12:51;16.40;;;10.23;;
4839;SDS011;2434;48.486;7.964;2024-01-15T13:15:20;18.57;;;10.57;;
4839;SDS011;2434;48.486;7.964;2024-01-15T13:17:48;16.17;;;10.10;;
4839;SDS011;2434;48.486;7.964;2024-01-15T13:20:16;12.80;;;8.53;;
4839;SDS011;2434;48.486;7.964;2024-01-15T13:22:44;16.80;;;9.03;;
4839;SDS011;2434;48.486;7.964;2024-01-15T13:25:13;15.10;;;8.60;;
4839;SDS011;2434;48.486;7.964;2024-01-15T13:27:44;15.00;;;8.80;;
4839;SDS011;2434;48.486;7.964;2024-01-15T13:30:12;12.87;;;8.30;;
4839;SDS011;2434;48.486;7.964;2024-01-15T13:32:41;15.47;;;8.57;;
4839;SDS011;2434;48.486;7.964;2024-01-15T13:35:09;16.03;;;8.30;;
4839;SDS011;2434;48.486;7.964;2024-01-15T13:37:40;12.67;;;8.67;;
4839;SDS011;2434;48.486;7.964;2024-01-15T13:40:09;16.70;;;9.63;;
4839;SDS011;2434;48.486;7.964;2024-01-15T13:42:44;14.77;;;7.77;;
4839;SDS011;2434;48.486;7.964;2024-01-15T13:45:13;14.27;;;8.10;;
4839;SDS011;2434;48.486;7.964;2024-01-15T13:47:42;17.63;;;8.73;;
4839;SDS011;2434;48.486;7.964;2024-01-15T13:50:11;15.57;;;8.10;;
4839;SDS011;2434;48.486;7.964;2024-01-15T13:52:39;13.87;;;7.93;;
4839;SDS011;2434;48.486;7.964;2024-01-15T13:55:08;13.87;;;7.87;;
4839;SDS011;2434;48.486;7.964;2024-01-15T13:57:36;10.43;;;6.63;;
4839;SDS011;2434;48.486;7.964;2024-01-15T14:00:07;13.53;;;7.60;;
4839;SDS011;2434;48.486;7.964;2024-01-15T14:02:39;13.80;;;8.23;;
4839;SDS011;2434;48.486;7.964;2024-01-15T14:05:07;15.00;;;8.53;;
4839;SDS011;2434;48.486;7.964;2024-01-15T14:07:35;12.23;;;7.40;;
4839;SDS011;2434;48.486;7.964;2024-01-15T14:10:04;13.17;;;7.30;;
4839;SDS011;2434;48.486;7.964;2024-01-15T14:12:34;11.97;;;7.33;;
4839;SDS011;2434;48.486;7.964;2024-01-15T14:15:02;12.23;;;7.43;;
4839;SDS011;2434;48.486;7.964;2024-01-15T14:17:33;13.83;;;7.67;;
4839;SDS011;2434;48.486;7.964;2024-01-15T14:20:01;15.83;;;7.90;;
4839;SDS011;2434;48.486;7.964;2024-01-15T14:22:31;14.27;;;7.27;;
4839;SDS011;2434;48.486;7.964;2024-01-15T14:24:59;13.77;;;7.23;;
4839;SDS011;2434;48.486;7.964;2024-01-15T14:27:27;14.90;;;8.60;;
4839;SDS011;2434;48.486;7.964;2024-01-15T14:29:56;21.07;;;11.40;;
4839;SDS011;2434;48.486;7.964;2024-01-15T14:32:23;25.87;;;12.80;;
4839;SDS011;2434;48.486;7.964;2024-01-15T14:34:53;17.47;;;9.40;;
4839;SDS011;2434;48.486;7.964;2024-01-15T14:37:23;17.90;;;9.03;;
4839;SDS011;2434;48.486;7.964;2024-01-15T14:39:51;17.40;;;8.93;;
4839;SDS011;2434;48.486;7.964;2024-01-15T14:42:19;15.80;;;9.00;;
4839;SDS011;2434;48.486;7.964;2024-01-15T14:44:47;16.43;;;9.37;;
4839;SDS011;2434;48.486;7.964;2024-01-15T14:47:15;18.07;;;8.53;;
4839;SDS011;2434;48.486;7.964;2024-01-15T14:49:43;15.40;;;7.67;;
4839;SDS011;2434;48.486;7.964;2024-01-15T14:52:12;12.30;;;7.50;;
4839;SDS011;2434;48.486;7.964;2024-01-15T14:54:40;13.00;;;7.60;;
4839;SDS011;2434;48.486;7.964;2024-01-15T14:57:08;14.47;;;8.37;;
4839;SDS011;2434;48.486;7.964;2024-01-15T14:59:36;14.77;;;9.77;;
4839;SDS011;2434;48.486;7.964;2024-01-15T15:02:04;25.03;;;11.80;;
4839;SDS011;2434;48.486;7.964;2024-01-15T15:04:33;17.57;;;10.20;;